Time;durP1;ratioP1;P1;durP2;ratioP2;P2;SDS_P1;SDS_P2;PMS_P1;PMS_P2;Temp;Humidity;BMP_temperature;BMP_pressure;BME280_temperature;BME280_humidity;BME280_pressure;Samples;Min_cycle;Max_cycle;Signal;HPM_P1;HPM_P2
2021/07/13 00:00:15;;;;;;;23.75;21.55;;;;;;;17.95;100.00;100292.13;3573806;40;20092;-51
2021/07/13 00:02:42;;;;;;;26.00;22.25;;;;;;;17.90;100.00;100293.94;3573707;40;20100;-51
2021/07/13 00:05:13;;;;;;;24.40;22.00;;;;;;;17.87;100.00;100291.34;3573913;40;20120;-52
2021/07/13 00:07:42;;;;;;;25.00;22.42;;;;;;;17.87;100.00;100296.53;3573778;40;20085;-53
2021/07/13 00:10:10;;;;;;;23.10;20.80;;;;;;;18.19;100.00;100300.50;3573722;40;20336;-54
2021/07/13 00:12:38;;;;;;;24.50;21.90;;;;;;;18.46;100.00;100302.75;3573836;40;20064;-52
2021/07/13 00:15:10;;;;;;;23.70;21.25;;;;;;;18.13;100.00;100305.78;3573820;40;20056;-51
2021/07/13 00:17:37;;;;;;;24.23;21.83;;;;;;;17.91;100.00;100292.19;3569922;40;20081;-56
2021/07/13 00:20:06;;;;;;;25.20;22.50;;;;;;;17.79;100.00;100283.69;3573440;40;20065;-52
2021/07/13 00:22:33;;;;;;;23.27;20.98;;;;;;;17.83;100.00;100289.66;3569754;40;20060;-52
2021/07/13 00:25:00;;;;;;;23.38;21.08;;;;;;;17.79;100.00;100288.88;3573161;40;20092;-47
2021/07/13 00:27:27;;;;;;;25.45;21.67;;;;;;;17.72;100.00;100286.31;3573471;40;20080;-51
2021/07/13 00:29:54;;;;;;;25.50;22.67;;;;;;;17.72;100.00;100288.91;3573345;40;20081;-50
2021/07/13 00:32:21;;;;;;;24.42;21.92;;;;;;;17.84;100.00;100280.16;3573353;40;20053;-52
2021/07/13 00:34:48;;;;;;;24.40;21.92;;;;;;;17.85;100.00;100277.56;3573780;40;20735;-55
2021/07/13 00:37:15;;;;;;;25.67;23.10;;;;;;;17.80;100.00;100281.97;3573576;40;20056;-55
2021/07/13 00:39:42;;;;;;;23.92;21.33;;;;;;;17.96;100.00;100280.91;3573232;40;20063;-51
2021/07/13 00:42:18;;;;;;;25.77;23.08;;;;;;;17.64;100.00;100286.38;3573752;40;20120;-50
2021/07/13 00:44:47;;;;;;;26.73;23.02;;;;;;;17.48;100.00;100287.41;3573361;40;20041;-53
2021/07/13 00:47:19;;;;;;;26.20;23.40;;;;;;;17.44;100.00;100285.72;3573237;40;20059;-54
2021/07/13 00:49:47;;;;;;;26.95;23.60;;;;;;;17.41;100.00;100290.91;3573355;40;20092;-52
2021/07/13 00:52:15;;;;;;;27.17;24.30;;;;;;;17.36;100.00;100290.09;3573262;40;20053;-52
2021/07/13 00:54:43;;;;;;;27.75;24.92;;;;;;;17.35;100.00;100290.97;3573421;40;20085;-51
2021/07/13 00:57:12;;;;;;;26.25;23.63;;;;;;;17.36;100.00;100285.78;3573937;40;20324;-55
2021/07/13 00:59:40;;;;;;;27.65;24.85;;;;;;;17.38;100.00;100288.34;3573401;40;20080;-51
2021/07/13 01:02:09;;;;;;;27.80;24.77;;;;;;;17.38;100.00;100281.47;3573628;40;20100;-51
2021/07/13 01:04:41;;;;;;;28.98;24.02;;;;;;;17.35;100.00;100280.63;3573294;40;20053;-52
2021/07/13 01:07:12;;;;;;;27.23;23.33;;;;;;;17.46;100.00;100277.06;3573224;40;20381;-52
2021/07/13 01:10:15;;;;;;;26.95;24.05;;;;;;;17.41;100.00;100272.78;3573205;40;20085;-51
2021/07/13 01:13:03;;;;;;;25.67;23.08;;;;;;;17.31;100.00;100274.59;3569728;40;20059;-52
2021/07/13 01:15:34;;;;;;;23.85;21.55;;;;;;;17.35;100.00;100272.84;3569219;40;20056;-50
2021/07/13 01:18:12;;;;;;;26.33;23.52;;;;;;;17.26;100.00;100273.78;3573398;40;21166;-51
2021/07/13 01:20:57;;;;;;;26.98;24.10;;;;;;;17.23;100.00;100266.03;3573290;40;20053;-52
2021/07/13 01:23:36;;;;;;;25.57;22.83;;;;;;;17.22;100.00;100265.19;3572980;40;20411;-52
2021/07/13 01:26:26;;;;;;;26.25;23.50;;;;;;;17.20;100.00;100266.09;3573217;40;20089;-52
2021/07/13 01:29:00;;;;;;;27.40;24.60;;;;;;;17.09;100.00;100267.88;3573156;40;20049;-49
2021/07/13 01:31:28;;;;;;;25.25;22.75;;;;;;;17.12;100.00;100273.91;3573447;40;20044;-51
2021/07/13 01:34:07;;;;;;;27.15;24.08;;;;;;;17.08;100.00;100263.59;3573636;40;20077;-51
2021/07/13 01:36:41;;;;;;;27.23;24.33;;;;;;;17.05;100.00;100264.47;3573102;40;20133;-52
2021/07/13 01:39:11;;;;;;;26.70;23.85;;;;;;;17.03;100.00;100258.44;3573245;40;20057;-49
2021/07/13 01:41:40;;;;;;;27.92;23.75;;;;;;;17.02;100.00;100256.75;3573081;40;20096;-50
2021/07/13 01:44:10;;;;;;;26.80;23.73;;;;;;;17.07;100.00;100254.97;3573161;40;20061;-50
2021/07/13 01:46:38;;;;;;;27.08;24.25;;;;;;;17.03;100.00;100258.44;3573124;40;20045;-50
2021/07/13 01:49:06;;;;;;;25.80;23.13;;;;;;;17.03;100.00;100255.88;3572916;40;20081;-49
2021/07/13 01:51:34;;;;;;;26.95;24.17;;;;;;;16.98;100.00;100255.91;3569153;40;20064;-51
2021/07/13 01:54:08;;;;;;;26.83;24.10;;;;;;;16.90;100.00;100252.50;3573169;40;20053;-54
2021/07/13 01:56:36;;;;;;;27.58;24.58;;;;;;;16.82;100.00;100250.84;3573104;40;20367;-50
2021/07/13 01:59:06;;;;;;;27.42;24.52;;;;;;;16.86;100.00;100250.81;3573047;40;20071;-54
2021/07/13 02:01:34;;;;;;;27.25;24.27;;;;;;;16.81;100.00;100252.56;3569170;40;20069;-48
2021/07/13 02:04:03;;;;;;;27.42;24.38;;;;;;;16.78;100.00;100250.03;3572976;40;20060;-52
2021/07/13 02:06:30;;;;;;;27.45;24.00;;;;;;;16.75;100.00;100252.63;3572995;40;20074;-52
2021/07/13 02:09:08;;;;;;;25.63;22.88;;;;;;;16.74;100.00;100246.59;3572642;40;20077;-50
2021/07/13 02:11:35;;;;;;;27.85;24.95;;;;;;;16.70;100.00;100256.94;3573013;40;20088;-53
2021/07/13 02:14:02;;;;;;;26.55;23.80;;;;;;;16.72;100.00;100262.97;3572824;40;20096;-52
2021/07/13 02:16:29;;;;;;;26.35;23.45;;;;;;;16.70;100.00;100254.34;3572713;40;20045;-49
2021/07/13 02:18:56;;;;;;;25.08;22.50;;;;;;;16.82;100.00;100254.28;3572825;40;20049;-51
2021/07/13 02:21:23;;;;;;;25.73;23.02;;;;;;;16.77;100.00;100262.06;3571561;40;20101;-51
2021/07/13 02:23:50;;;;;;;25.20;22.73;;;;;;;17.15;100.00;100263.53;3569930;40;20061;-51
2021/07/13 02:26:21;;;;;;;27.00;23.25;;;;;;;16.94;100.00;100263.69;3572650;40;20061;-52
2021/07/13 02:28:59;;;;;;;24.88;22.30;;;;;;;16.79;100.00;100262.94;3572610;40;20077;-51
2021/07/13 02:31:30;;;;;;;26.48;23.77;;;;;;;16.70;100.00;100259.53;3572822;40;20057;-52
2021/07/13 02:34:05;;;;;;;25.80;23.20;;;;;;;16.66;100.00;100263.00;3572912;40;20068;-50
2021/07/13 02:36:35;;;;;;;25.80;22.42;;;;;;;16.86;100.00;100257.72;3568554;40;20115;-53
2021/07/13 02:39:06;;;;;;;26.40;23.60;;;;;;;16.69;100.00;100256.06;3572515;40;20081;-53
2021/07/13 02:41:34;;;;;;;26.10;23.30;;;;;;;16.83;100.00;100247.41;3572264;40;20113;-51
2021/07/13 02:44:03;;;;;;;25.30;22.70;;;;;;;16.67;100.00;100251.78;3571947;40;20088;-52
2021/07/13 02:46:31;;;;;;;26.10;23.30;;;;;;;16.91;100.00;100251.63;3572436;40;20049;-53
2021/07/13 02:49:00;;;;;;;26.63;23.83;;;;;;;16.68;100.00;100245.72;3573985;40;20092;-50
2021/07/13 02:51:28;;;;;;;24.52;22.08;;;;;;;16.76;100.00;100244.84;3574019;40;20092;-49
2021/07/13 02:53:55;;;;;;;24.35;21.75;;;;;;;16.64;100.00;100246.59;3573999;40;20092;-51
2021/07/13 02:56:26;;;;;;;27.10;24.15;;;;;;;16.49;100.00;100243.25;3574133;40;20451;-50
2021/07/13 02:59:02;;;;;;;31.10;24.67;;;;;;;16.41;100.00;100237.28;3573950;40;20063;-50
2021/07/13 03:01:31;;;;;;;27.20;23.85;;;;;;;16.38;100.00;100236.44;3574040;40;20807;-53
2021/07/13 03:04:00;;;;;;;27.77;24.77;;;;;;;16.43;100.00;100235.53;3574162;40;20060;-49
2021/07/13 03:06:27;;;;;;;28.60;25.55;;;;;;;16.39;100.00;100240.72;3574068;40;20057;-52
2021/07/13 03:08:55;;;;;;;28.00;25.00;;;;;;;16.38;100.00;100239.88;3574100;40;20156;-51
2021/07/13 03:11:22;;;;;;;31.90;25.65;;;;;;;16.50;100.00;100241.53;3573991;40;20090;-49
2021/07/13 03:13:50;;;;;;;30.20;26.95;;;;;;;16.48;100.00;100238.09;3574222;40;20064;-52
2021/07/13 03:16:17;;;;;;;29.77;25.95;;;;;;;16.52;100.00;100239.81;3573937;40;20146;-50
2021/07/13 03:18:45;;;;;;;31.20;27.55;;;;;;;16.51;100.00;100245.84;3573918;40;20049;-51
2021/07/13 03:21:15;;;;;;;30.88;27.38;;;;;;;16.58;100.00;100241.47;3574070;40;20084;-53
2021/07/13 03:23:43;;;;;;;30.65;27.10;;;;;;;16.54;100.00;100238.91;3574054;40;20914;-55
2021/07/13 03:26:11;;;;;;;32.60;28.63;;;;;;;16.62;100.00;100238.03;3573918;40;20092;-52
2021/07/13 03:28:40;;;;;;;36.03;28.80;;;;;;;16.53;100.00;100233.75;3573970;40;20063;-52
2021/07/13 03:31:09;;;;;;;34.75;28.90;;;;;;;16.50;100.00;100226.91;3573513;40;20069;-53
2021/07/13 03:33:36;;;;;;;33.92;26.95;;;;;;;16.55;100.00;100224.28;3573872;40;20055;-53
2021/07/13 03:36:04;;;;;;;37.60;28.10;;;;;;;16.54;100.00;100225.13;3573924;40;20053;-53
2021/07/13 03:38:31;;;;;;;34.38;28.08;;;;;;;16.56;100.00;100228.59;3573952;40;20138;-50
2021/07/13 03:40:58;;;;;;;34.28;28.63;;;;;;;16.57;100.00;100225.13;3574050;40;20157;-50
2021/07/13 03:43:28;;;;;;;33.20;27.38;;;;;;;16.61;100.00;100218.22;3574093;40;20142;-50
2021/07/13 03:45:57;;;;;;;33.10;27.45;;;;;;;16.59;100.00;100223.38;3573744;40;20045;-52
2021/07/13 03:48:25;;;;;;;32.55;28.23;;;;;;;16.59;100.00;100225.97;3573847;40;20404;-52
2021/07/13 03:50:53;;;;;;;32.75;27.88;;;;;;;16.62;100.00;100218.19;3573817;40;20162;-50
2021/07/13 03:53:20;;;;;;;29.58;26.02;;;;;;;16.66;100.00;100219.91;3573882;40;20072;-50
2021/07/13 03:55:47;;;;;;;32.75;25.85;;;;;;;16.75;100.00;100221.59;3573930;40;20415;-51
2021/07/13 03:58:15;;;;;;;31.67;27.08;;;;;;;16.81;100.00;100218.94;3573250;40;20049;-52
2021/07/13 04:00:42;;;;;;;30.60;26.98;;;;;;;16.81;100.00;100224.13;3573428;40;20041;-53
2021/07/13 04:03:09;;;;;;;30.92;26.52;;;;;;;16.85;100.00;100223.22;3573752;40;20041;-48
2021/07/13 04:05:37;;;;;;;29.40;24.70;;;;;;;16.97;100.00;100230.06;3573654;40;20847;-54
2021/07/13 04:08:04;;;;;;;30.27;26.75;;;;;;;16.98;100.00;100232.63;3573553;40;20183;-52
2021/07/13 04:10:31;;;;;;;29.83;26.05;;;;;;;16.96;100.00;100236.97;3569399;40;20677;-51
2021/07/13 04:12:58;;;;;;;28.70;25.65;;;;;;;16.98;100.00;100226.59;3573619;40;20130;-52
2021/07/13 04:15:26;;;;;;;28.50;25.17;;;;;;;17.00;100.00;100228.28;3573552;40;21362;-49
2021/07/13 04:17:53;;;;;;;33.20;25.20;;;;;;;16.97;100.00;100220.56;3573544;40;20179;-50
2021/07/13 04:20:21;;;;;;;30.35;26.30;;;;;;;17.04;100.00;100236.88;3573494;40;20142;-49
2021/07/13 04:22:49;;;;;;;27.70;24.70;;;;;;;17.10;100.00;100234.25;3573474;40;20149;-50
2021/07/13 04:25:16;;;;;;;29.08;24.13;;;;;;;17.34;100.00;100228.00;3573562;40;20053;-51
2021/07/13 04:27:44;;;;;;;27.75;24.33;;;;;;;17.26;100.00;100229.78;3573926;40;20396;-50
2021/07/13 04:30:11;;;;;;;29.05;24.40;;;;;;;17.29;100.00;100222.03;3573551;40;20052;-50
2021/07/13 04:32:39;;;;;;;26.65;23.85;;;;;;;17.37;100.00;100225.38;3572503;40;20134;-49
2021/07/13 04:35:07;;;;;;;28.90;25.02;;;;;;;17.44;100.00;100223.59;3573599;40;20057;-46
2021/07/13 04:37:35;;;;;;;25.75;22.80;;;;;;;17.49;100.00;100219.22;3569400;40;20072;-49
2021/07/13 04:40:04;;;;;;;27.35;24.55;;;;;;;17.51;100.00;100222.63;3573490;40;20132;-49
2021/07/13 04:42:31;;;;;;;29.02;23.33;;;;;;;17.58;100.00;100221.72;3573427;40;20462;-51
2021/07/13 04:44:58;;;;;;;24.15;21.65;;;;;;;17.64;100.00;100231.16;3573550;40;20045;-53
2021/07/13 04:47:25;;;;;;;25.75;22.25;;;;;;;17.73;100.00;100229.34;3573399;40;20089;-48
2021/07/13 04:49:52;;;;;;;26.73;23.92;;;;;;;17.80;100.00;100230.16;3573636;40;20331;-52
2021/07/13 04:52:19;;;;;;;24.02;21.35;;;;;;;18.00;100.00;100227.31;3573334;40;20081;-50
2021/07/13 04:54:46;;;;;;;23.17;20.77;;;;;;;18.19;100.00;100225.34;3573449;40;20057;-52
2021/07/13 04:57:13;;;;;;;23.92;21.52;;;;;;;18.18;100.00;100232.28;3573459;40;20053;-51
2021/07/13 04:59:40;;;;;;;23.73;21.15;;;;;;;18.25;100.00;100226.13;3572974;40;20068;-52
2021/07/13 05:02:07;;;;;;;23.67;21.15;;;;;;;18.20;100.00;100222.72;3572730;40;20051;-54
2021/07/13 05:04:34;;;;;;;24.33;21.88;;;;;;;18.27;100.00;100226.97;3569017;40;20112;-52
2021/07/13 05:07:02;;;;;;;21.48;19.23;;;;;;;18.36;100.00;100228.59;3573160;40;20443;-51
2021/07/13 05:09:29;;;;;;;21.25;19.02;;;;;;;18.56;100.00;100229.16;3572844;40;20049;-48
2021/07/13 05:11:56;;;;;;;22.58;20.17;;;;;;;18.61;100.00;100226.50;3572403;40;20057;-50
2021/07/13 05:14:23;;;;;;;23.10;19.58;;;;;;;18.75;100.00;100223.72;3573115;40;20588;-55
2021/07/13 05:16:50;;;;;;;22.48;18.92;;;;;;;18.83;100.00;100232.25;3573463;40;20057;-49
2021/07/13 05:19:17;;;;;;;21.83;19.65;;;;;;;18.99;100.00;100231.09;3573261;40;20056;-53
2021/07/13 05:21:49;;;;;;;21.90;19.70;;;;;;;19.27;100.00;100233.25;3573081;40;20056;-51
2021/07/13 05:24:16;;;;;;;19.45;17.33;;;;;;;19.42;100.00;100226.94;3573256;40;20076;-49
2021/07/13 05:26:44;;;;;;;19.88;17.90;;;;;;;19.23;100.00;100229.00;3573282;40;20097;-50
2021/07/13 05:29:11;;;;;;;19.50;17.48;;;;;;;19.52;100.00;100236.28;3572350;40;20084;-52
2021/07/13 05:31:38;;;;;;;25.27;18.13;;;;;;;19.89;100.00;100230.41;3572172;40;20101;-51
2021/07/13 05:34:11;;;;;;;19.77;17.67;;;;;;;19.56;100.00;100231.00;3572351;40;20406;-48
2021/07/13 05:36:44;;;;;;;18.27;16.48;;;;;;;19.73;100.00;100233.28;3573371;40;20130;-52
2021/07/13 05:39:21;;;;;;;19.23;17.25;;;;;;;19.77;100.00;100231.50;3573048;40;20060;-51
2021/07/13 05:42:02;;;;;;;18.13;16.33;;;;;;;20.01;100.00;100231.03;3572990;40;20469;-50
2021/07/13 05:44:34;;;;;;;18.88;16.92;;;;;;;20.11;100.00;100238.63;3564988;40;20044;-49
2021/07/13 05:47:11;;;;;;;19.52;17.58;;;;;;;20.20;100.00;100241.00;3573086;40;20073;-50
2021/07/13 05:49:42;;;;;;;18.35;16.63;;;;;;;20.64;100.00;100244.44;3573437;40;20385;-49
2021/07/13 05:52:30;;;;;;;18.65;16.88;;;;;;;20.46;100.00;100245.66;3573065;40;20080;-53
2021/07/13 05:55:09;;;;;;;18.00;16.27;;;;;;;20.35;100.00;100251.97;3573183;40;20409;-48
2021/07/13 05:57:55;;;;;;;17.48;15.85;;;;;;;20.55;100.00;100246.34;3570124;40;20041;-50
2021/07/13 06:00:32;;;;;;;18.27;15.48;;;;;;;20.62;100.00;100244.47;3573113;40;20420;-51
2021/07/13 06:03:08;;;;;;;17.33;15.43;;;;;;;20.85;100.00;100244.81;3573099;40;20351;-52
2021/07/13 06:05:53;;;;;;;16.90;15.20;;;;;;;21.15;100.00;100251.88;3568391;40;20045;-53
2021/07/13 06:08:33;;;;;;;15.75;14.05;;;;;;;21.02;100.00;100251.34;3572603;40;20045;-54
2021/07/13 06:11:13;;;;;;;15.20;13.82;;;;;;;21.36;100.00;100246.19;3573043;40;20053;-54
2021/07/13 06:13:50;;;;;;;16.42;14.07;;;;;;;21.31;100.00;100250.66;3569376;40;20049;-52
2021/07/13 06:16:26;;;;;;;15.65;14.05;;;;;;;21.67;98.06;100245.34;3572785;40;20419;-48
2021/07/13 06:18:56;;;;;;;15.32;13.73;;;;;;;21.83;97.97;100254.47;3573094;40;20319;-50
2021/07/13 06:21:35;;;;;;;15.15;13.68;;;;;;;21.79;97.06;100251.09;3572748;40;20061;-50
2021/07/13 06:24:14;;;;;;;14.23;12.82;;;;;;;22.00;95.08;100251.38;3574366;40;20146;-53
2021/07/13 06:26:54;;;;;;;13.85;12.45;;;;;;;22.03;97.95;100248.69;3574390;40;20421;-49
2021/07/13 06:29:27;;;;;;;15.27;13.95;;;;;;;22.32;95.62;100247.88;3574083;40;20134;-52
2021/07/13 06:31:56;;;;;;;14.38;13.07;;;;;;;22.32;93.13;100247.88;3574205;40;20141;-51
2021/07/13 06:34:29;;;;;;;13.55;11.98;;;;;;;22.49;92.15;100253.44;3574111;40;20053;-51
2021/07/13 06:37:11;;;;;;;13.10;11.90;;;;;;;22.52;90.81;100250.75;3574359;40;20045;-56
2021/07/13 06:39:50;;;;;;;11.70;10.52;;;;;;;22.75;91.25;100252.66;3574242;40;20049;-51
2021/07/13 06:42:17;;;;;;;16.13;12.10;;;;;;;22.90;89.19;100253.94;3574248;40;20776;-50
2021/07/13 06:44:45;;;;;;;12.32;11.23;;;;;;;23.21;88.51;100248.56;3574228;40;20057;-49
2021/07/13 06:47:18;;;;;;;12.45;11.35;;;;;;;23.15;86.85;100251.38;3574300;40;20628;-54
2021/07/13 06:49:58;;;;;;;12.40;11.23;;;;;;;23.31;85.52;100242.13;3574479;40;20057;-53
2021/07/13 06:52:35;;;;;;;12.57;11.32;;;;;;;23.62;85.37;100252.38;3574317;40;20049;-52
2021/07/13 06:55:30;;;;;;;12.73;11.52;;;;;;;23.74;84.47;100250.25;3574149;40;20411;-49
2021/07/13 06:58:02;;;;;;;14.05;10.60;;;;;;;23.77;82.52;100251.00;3574152;40;20037;-49
2021/07/13 07:00:38;;;;;;;11.25;10.20;;;;;;;23.91;81.13;100240.03;3574125;40;20041;-50
2021/07/13 07:03:31;;;;;;;12.05;10.50;;;;;;;24.12;81.40;100241.00;3574278;40;20801;-48
2021/07/13 07:06:09;;;;;;;10.90;9.88;;;;;;;24.30;78.14;100240.31;3574139;40;20045;-54
2021/07/13 07:08:47;;;;;;;11.45;10.35;;;;;;;24.61;76.54;100244.38;3574002;40;20433;-51
2021/07/13 07:11:26;;;;;;;10.70;9.80;;;;;;;24.63;76.85;100243.41;3573779;40;20086;-55
2021/07/13 07:14:06;;;;;;;10.75;9.75;;;;;;;24.81;75.37;100238.34;3574511;40;20407;-54
2021/07/13 07:16:43;;;;;;;9.82;8.98;;;;;;;24.93;77.31;100240.47;3570904;40;20045;-51
2021/07/13 07:19:17;;;;;;;9.70;8.85;;;;;;;25.14;76.81;100242.25;3574602;40;20086;-51
2021/07/13 07:21:59;;;;;;;10.25;9.18;;;;;;;25.31;75.43;100233.66;3573882;40;20103;-53
2021/07/13 07:24:35;;;;;;;10.50;9.60;;;;;;;25.35;73.09;100235.25;3573855;40;20060;-49
2021/07/13 07:27:13;;;;;;;10.40;9.40;;;;;;;25.59;72.64;100233.31;3573970;40;20073;-51
2021/07/13 07:29:57;;;;;;;9.48;8.57;;;;;;;26.01;71.60;100229.72;3573863;40;20057;-51
2021/07/13 07:32:32;;;;;;;10.35;9.50;;;;;;;26.14;69.58;100230.03;3573898;40;20060;-53
2021/07/13 07:35:14;;;;;;;9.63;8.77;;;;;;;26.53;67.56;100229.97;3573723;40;20037;-54
2021/07/13 07:37:53;;;;;;;9.07;8.27;;;;;;;26.72;67.91;100229.09;3571716;40;20059;-50
2021/07/13 07:40:35;;;;;;;10.65;8.32;;;;;;;26.88;66.46;100233.50;3573589;40;20134;-52
2021/07/13 07:43:11;;;;;;;8.15;7.50;;;;;;;27.16;62.37;100232.16;3574066;40;20817;-53
2021/07/13 07:45:51;;;;;;;8.05;7.25;;;;;;;27.00;63.62;100229.44;3572881;40;20057;-50
2021/07/13 07:48:33;;;;;;;7.63;6.93;;;;;;;26.54;66.50;100225.56;3573767;40;20060;-51
2021/07/13 07:51:18;;;;;;;9.02;8.23;;;;;;;26.45;65.84;100218.97;3573776;40;20049;-51
2021/07/13 07:54:01;;;;;;;8.45;7.75;;;;;;;26.50;66.67;100216.97;3570971;40;20052;-53
2021/07/13 07:56:31;;;;;;;9.25;7.65;;;;;;;26.55;66.23;100225.50;3573862;40;20045;-51
2021/07/13 07:59:08;;;;;;;8.85;8.05;;;;;;;26.40;66.38;100213.06;3574187;40;20056;-51
2021/07/13 08:01:43;;;;;;;9.68;8.70;;;;;;;26.09;67.23;100213.66;3573908;40;20428;-52
2021/07/13 08:04:13;;;;;;;8.73;7.93;;;;;;;26.53;68.54;100214.22;3573890;40;20048;-52
2021/07/13 08:06:43;;;;;;;7.65;6.95;;;;;;;26.63;64.71;100215.47;3573865;40;20056;-52
2021/07/13 08:09:21;;;;;;;6.32;5.55;;;;;;;26.70;61.32;100223.03;3573731;40;20402;-53
2021/07/13 08:11:53;;;;;;;6.63;6.05;;;;;;;26.68;60.75;100219.66;3573578;40;20053;-50
2021/07/13 08:14:23;;;;;;;6.63;6.00;;;;;;;26.86;62.76;100221.38;3573637;40;20056;-52
2021/07/13 08:16:59;;;;;;;7.65;6.70;;;;;;;26.94;62.66;100223.59;3573632;40;20057;-56
2021/07/13 08:19:42;;;;;;;7.10;6.50;;;;;;;26.82;64.41;100219.81;3573459;40;20052;-52
2021/07/13 08:22:22;;;;;;;7.15;6.32;;;;;;;27.24;61.33;100216.00;3573612;40;20048;-50
2021/07/13 08:24:52;;;;;;;6.20;5.57;;;;;;;27.92;57.35;100230.00;3573546;40;20397;-53
2021/07/13 08:27:32;;;;;;;6.07;5.60;;;;;;;28.51;56.72;100225.88;3573488;40;20045;-49
2021/07/13 08:30:11;;;;;;;7.07;6.38;;;;;;;28.23;57.79;100223.03;3573699;40;20049;-51
2021/07/13 08:32:41;;;;;;;7.03;6.15;;;;;;;28.36;55.04;100214.41;3573907;40;20060;-54
2021/07/13 08:35:17;;;;;;;7.20;6.60;;;;;;;27.72;57.71;100206.50;3574422;40;20049;-56
2021/07/13 08:37:57;;;;;;;6.65;6.10;;;;;;;28.18;56.62;100213.63;3574207;40;20033;-57
2021/07/13 08:40:37;;;;;;;5.93;5.53;;;;;;;28.11;55.77;100204.38;3569443;40;20048;-53
2021/07/13 08:43:19;;;;;;;6.53;5.93;;;;;;;28.09;55.88;100200.09;3573673;40;20057;-50
2021/07/13 08:45:51;;;;;;;4.30;3.90;;;;;;;27.41;54.15;100198.44;3569533;40;20076;-52
2021/07/13 08:48:25;;;;;;;4.75;4.45;;;;;;;27.61;55.83;100197.38;3573340;40;20060;-51
2021/07/13 08:51:10;;;;;;;7.07;5.03;;;;;;;27.80;54.31;100192.00;3573531;40;20065;-50
2021/07/13 08:53:46;;;;;;;5.72;5.25;;;;;;;27.74;54.33;100186.25;3573898;40;20052;-54
2021/07/13 08:56:25;;;;;;;5.78;4.60;;;;;;;27.80;56.72;100189.38;3573455;40;20047;-51
2021/07/13 08:59:03;;;;;;;5.82;5.43;;;;;;;27.98;56.13;100189.31;3573786;40;20053;-47
2021/07/13 09:01:41;;;;;;;4.82;4.43;;;;;;;28.15;56.39;100189.25;3573261;40;20055;-46
2021/07/13 09:04:16;;;;;;;4.47;4.07;;;;;;;28.57;54.10;100191.28;3573446;40;20061;-52
2021/07/13 09:07:19;;;;;;;3.80;3.50;;;;;;;28.46;52.69;100187.56;3573345;40;20052;-56
2021/07/13 09:09:53;;;;;;;5.72;3.40;;;;;;;28.42;53.03;100186.88;3573352;40;20099;-56
2021/07/13 09:12:35;;;;;;;4.13;3.30;;;;;;;28.30;53.84;100187.53;3573230;40;20065;-54
2021/07/13 09:15:09;;;;;;;4.47;3.63;;;;;;;28.63;54.41;100183.03;3573247;40;20041;-51
2021/07/13 09:17:49;;;;;;;3.53;3.17;;;;;;;28.55;50.76;100189.66;3573046;40;20076;-47
2021/07/13 09:20:42;;;;;;;3.75;3.45;;;;;;;28.45;52.54;100183.22;3573114;40;20060;-47
2021/07/13 09:23:12;;;;;;;7.63;3.08;;;;;;;28.79;53.91;100176.84;3573194;40;20095;-51
2021/07/13 09:25:50;;;;;;;5.50;3.30;;;;;;;28.81;53.36;100173.22;3573014;40;20049;-45
2021/07/13 09:28:37;;;;;;;3.75;3.28;;;;;;;28.73;52.67;100164.03;3572847;40;20057;-47
2021/07/13 09:31:16;;;;;;;5.22;3.63;;;;;;;29.12;51.04;100171.41;3573219;40;20395;-53
2021/07/13 09:33:56;;;;;;;4.40;4.10;;;;;;;29.29;49.82;100167.78;3573200;40;20060;-47
2021/07/13 09:36:40;;;;;;;4.13;3.60;;;;;;;29.78;47.88;100165.63;3573213;40;20065;-45
2021/07/13 09:39:21;;;;;;;4.35;3.95;;;;;;;30.00;49.10;100167.78;3573056;40;20049;-51
2021/07/13 09:41:53;;;;;;;5.18;3.30;;;;;;;30.42;47.85;100168.63;3573008;40;20116;-46
2021/07/13 09:44:27;;;;;;;3.85;3.55;;;;;;;30.60;48.20;100167.41;3573132;40;20052;-46
2021/07/13 09:47:03;;;;;;;3.78;3.50;;;;;;;30.73;43.68;100169.25;3573320;40;20319;-46
2021/07/13 09:49:49;;;;;;;4.15;3.75;;;;;;;30.82;45.66;100172.13;3573159;40;20053;-51
2021/07/13 09:52:25;;;;;;;4.20;3.72;;;;;;;30.69;45.64;100158.00;3572861;40;20158;-43
2021/07/13 09:55:21;;;;;;;4.40;3.90;;;;;;;29.94;46.59;100158.44;3573096;40;20210;-49
2021/07/13 09:57:51;;;;;;;4.13;3.83;;;;;;;30.49;47.87;100146.13;3574202;40;20052;-50
2021/07/13 10:00:39;;;;;;;4.60;4.20;;;;;;;30.82;48.48;100147.50;3574350;40;20158;-49
2021/07/13 10:03:20;;;;;;;5.43;3.95;;;;;;;30.87;44.40;100159.44;3574370;40;20060;-43
2021/07/13 10:05:56;;;;;;;4.60;4.22;;;;;;;30.38;47.24;100152.13;3574480;40;20391;-44
2021/07/13 10:08:28;;;;;;;4.57;3.67;;;;;;;30.59;43.84;100152.50;3574318;40;20065;-49
2021/07/13 10:11:10;;;;;;;5.28;3.78;;;;;;;31.46;42.46;100158.13;3574376;40;20152;-46
2021/07/13 10:13:44;;;;;;;3.05;2.85;;;;;;;31.27;41.56;100156.78;3574762;40;20053;-50
2021/07/13 10:16:24;;;;;;;4.38;3.38;;;;;;;30.76;43.06;100156.69;3574990;40;20088;-48
2021/07/13 10:18:59;;;;;;;4.32;2.90;;;;;;;33.06;39.03;100164.97;3574593;40;20631;-48
2021/07/13 10:21:39;;;;;;;3.75;3.10;;;;;;;33.79;38.62;100162.84;3574354;40;20037;-48
2021/07/13 10:24:21;;;;;;;4.00;3.70;;;;;;;31.69;41.47;100152.06;3574645;40;20118;-46
2021/07/13 10:26:59;;;;;;;3.75;3.38;;;;;;;32.56;40.25;100152.88;3574453;40;20055;-45
2021/07/13 10:29:42;;;;;;;4.05;3.40;;;;;;;32.41;42.34;100141.59;3574237;40;20143;-46
2021/07/13 10:32:34;;;;;;;3.60;3.30;;;;;;;35.39;34.70;100156.66;3574460;40;20111;-48
2021/07/13 10:35:38;;;;;;;3.42;3.22;;;;;;;36.55;31.04;100156.13;3574467;40;20375;-48
2021/07/13 10:38:21;;;;;;;4.05;3.38;;;;;;;38.05;27.76;100160.63;3573775;40;20658;-49
2021/07/13 10:40:54;;;;;;;3.45;3.15;;;;;;;37.05;29.63;100161.28;3574344;40;20142;-45
2021/07/13 10:43:35;;;;;;;4.25;3.58;;;;;;;39.32;27.34;100166.56;3574234;40;20715;-45
2021/07/13 10:46:11;;;;;;;3.60;3.30;;;;;;;37.87;28.80;100163.25;3574346;40;20062;-48
2021/07/13 10:48:46;;;;;;;3.97;3.40;;;;;;;39.53;26.78;100171.53;3574053;40;20060;-50
2021/07/13 10:51:38;;;;;;;3.83;3.53;;;;;;;36.84;30.59;100162.31;3574452;40;20053;-45
2021/07/13 10:54:17;;;;;;;4.95;4.45;;;;;;;35.76;31.16;100148.13;3573928;40;20130;-47
2021/07/13 10:56:49;;;;;;;4.70;4.40;;;;;;;36.60;30.41;100146.72;3570504;40;20052;-47
2021/07/13 10:59:24;;;;;;;8.48;4.32;;;;;;;36.68;29.86;100159.34;3574048;40;20060;-46
2021/07/13 11:02:09;;;;;;;4.55;4.10;;;;;;;37.33;28.96;100151.50;3574199;40;20055;-44
2021/07/13 11:04:36;;;;;;;3.60;3.38;;;;;;;37.95;27.70;100150.84;3570463;40;20053;-45
2021/07/13 11:07:05;;;;;;;4.30;3.97;;;;;;;38.24;28.90;100152.44;3574476;40;20065;-49
2021/07/13 11:09:34;;;;;;;5.57;4.88;;;;;;;37.43;30.04;100142.47;3573760;40;20143;-45
2021/07/13 11:12:13;;;;;;;5.07;4.75;;;;;;;35.01;32.23;100134.19;3574111;40;20434;-49
2021/07/13 11:14:48;;;;;;;7.93;5.00;;;;;;;36.33;31.38;100146.56;3570489;40;20089;-49
2021/07/13 11:17:19;;;;;;;5.45;4.90;;;;;;;40.89;25.40;100156.88;3574069;40;20418;-46
2021/07/13 11:19:46;;;;;;;5.38;4.97;;;;;;;40.71;26.01;100151.69;3574278;40;20068;-48
2021/07/13 11:22:18;;;;;;;5.28;4.78;;;;;;;41.00;25.38;100155.69;3573867;40;20080;-48
2021/07/13 11:24:46;;;;;;;6.00;5.40;;;;;;;39.20;27.56;100140.06;3574160;40;20075;-49
2021/07/13 11:27:16;;;;;;;6.13;5.60;;;;;;;38.11;29.94;100142.13;3574057;40;20081;-46
2021/07/13 11:29:50;;;;;;;6.18;5.57;;;;;;;39.74;29.70;100147.81;3574215;40;20056;-47
2021/07/13 11:32:17;;;;;;;6.47;5.97;;;;;;;38.99;29.72;100144.06;3574128;40;20081;-45
2021/07/13 11:34:44;;;;;;;6.55;5.95;;;;;;;40.26;27.26;100147.66;3574580;40;20055;-48
2021/07/13 11:37:12;;;;;;;6.68;6.18;;;;;;;41.10;26.66;100141.06;3574958;40;20075;-49
2021/07/13 11:39:40;;;;;;;6.63;6.03;;;;;;;39.10;27.67;100139.25;3574918;40;20112;-45